Time;durP1;ratioP1;P1;durP2;ratioP2;P2;SDS_P1;SDS_P2;PMS_P1;PMS_P2;Temp;Humidity;BMP_temperature;BMP_pressure;BME280_temperature;BME280_humidity;BME280_pressure;Samples;Min_cycle;Max_cycle;Signal;HPM_P1;HPM_P2
2024/03/06 00:01:41;;;;;;;55.97;24.08;;;;;;;;;;5094786;28;20475;-73
2024/03/06 00:04:07;;;;;;;50.72;24.60;;;;;;;;;;5113347;28;20020;-73
2024/03/06 00:06:33;;;;;;;49.15;22.70;;;;;;;;;;5094496;28;20118;-72
2024/03/06 00:08:59;;;;;;;51.75;24.17;;;;;;;;;;5094882;28;20030;-71
2024/03/06 00:11:25;;;;;;;49.42;24.10;;;;;;;;;;5113610;28;20529;-73
2024/03/06 00:13:50;;;;;;;48.30;23.25;;;;;;;;;;5114125;28;20035;-71
2024/03/06 00:16:17;;;;;;;47.40;22.98;;;;;;;;;;5114461;28;20434;-72
2024/03/06 00:18:42;;;;;;;46.78;22.77;;;;;;;;;;5114301;28;20015;-72
2024/03/06 00:21:09;;;;;;;44.22;22.35;;;;;;;;;;5096056;28;20027;-73
2024/03/06 00:23:35;;;;;;;48.33;24.08;;;;;;;;;;5113441;28;20055;-70
2024/03/06 00:26:02;;;;;;;52.25;24.35;;;;;;;;;;5117551;28;20031;-73
2024/03/06 00:28:27;;;;;;;54.00;25.00;;;;;;;;;;5098566;28;20045;-71
2024/03/06 00:30:53;;;;;;;48.70;23.17;;;;;;;;;;5117302;28;20035;-71
2024/03/06 00:33:19;;;;;;;56.22;24.42;;;;;;;;;;5116675;28;20027;-71
2024/03/06 00:35:44;;;;;;;50.88;23.85;;;;;;;;;;5117052;28;20024;-73
2024/03/06 00:38:10;;;;;;;58.22;24.90;;;;;;;;;;5117166;28;20320;-71
2024/03/06 00:40:35;;;;;;;48.78;22.73;;;;;;;;;;5116598;28;20037;-72
2024/03/06 00:43:01;;;;;;;54.03;24.60;;;;;;;;;;5098769;28;20036;-72
2024/03/06 00:45:26;;;;;;;53.03;23.90;;;;;;;;;;5099113;28;20102;-73
2024/03/06 00:47:52;;;;;;;50.08;23.15;;;;;;;;;;5098939;28;20072;-71
2024/03/06 00:50:18;;;;;;;60.58;24.42;;;;;;;;;;5098561;28;20534;-72
2024/03/06 00:52:45;;;;;;;49.15;22.73;;;;;;;;;;5117104;28;20116;-73
2024/03/06 00:55:11;;;;;;;52.75;24.75;;;;;;;;;;5098482;28;20020;-73
2024/03/06 00:57:36;;;;;;;55.15;25.45;;;;;;;;;;5116807;28;20527;-71
2024/03/06 01:00:22;;;;;;;55.45;25.35;;;;;;;;;;5116625;28;20336;-74
2024/03/06 01:02:47;;;;;;;50.78;23.50;;;;;;;;;;5097971;28;20028;-71
2024/03/06 01:05:13;;;;;;;48.10;22.98;;;;;;;;;;5097997;28;20070;-73
2024/03/06 01:07:39;;;;;;;54.30;24.13;;;;;;;;;;5097818;28;20035;-73
2024/03/06 01:10:06;;;;;;;52.08;24.33;;;;;;;;;;5097886;28;20380;-72
2024/03/06 01:12:35;;;;;;;52.83;24.17;;;;;;;;;;5097594;28;20593;-72
2024/03/06 01:15:01;;;;;;;46.53;21.60;;;;;;;;;;5097634;28;20032;-73
2024/03/06 01:17:27;;;;;;;55.25;26.80;;;;;;;;;;5115651;28;20031;-71
2024/03/06 01:19:52;;;;;;;55.40;24.30;;;;;;;;;;5096664;28;20108;-73
2024/03/06 01:22:18;;;;;;;51.95;23.77;;;;;;;;;;5096983;28;20042;-73
2024/03/06 01:24:44;;;;;;;54.40;25.23;;;;;;;;;;5096930;28;20425;-71
2024/03/06 01:27:10;;;;;;;50.30;24.20;;;;;;;;;;5115618;28;20105;-72
2024/03/06 01:29:36;;;;;;;50.70;24.98;;;;;;;;;;5097101;28;20496;-72
2024/03/06 01:32:01;;;;;;;52.60;24.05;;;;;;;;;;5097011;28;20026;-72
2024/03/06 01:34:27;;;;;;;55.13;25.15;;;;;;;;;;5114448;28;20096;-71
2024/03/06 01:36:53;;;;;;;48.80;24.13;;;;;;;;;;5114562;28;20050;-72
2024/03/06 01:39:19;;;;;;;51.30;24.85;;;;;;;;;;5097233;28;20025;-72
2024/03/06 01:41:49;;;;;;;57.40;24.95;;;;;;;;;;5097410;28;20136;-72
2024/03/06 01:44:16;;;;;;;56.38;24.27;;;;;;;;;;5097241;28;20027;-72
2024/03/06 01:46:54;;;;;;;54.80;24.90;;;;;;;;;;5114991;28;20039;-71
2024/03/06 01:49:21;;;;;;;51.58;23.13;;;;;;;;;;5113702;28;20027;-71
2024/03/06 01:51:51;;;;;;;58.58;26.60;;;;;;;;;;5113338;28;20036;-72
2024/03/06 01:54:17;;;;;;;52.58;24.60;;;;;;;;;;5096347;28;20034;-71
2024/03/06 01:56:45;;;;;;;60.90;26.83;;;;;;;;;;5096953;28;20108;-73
2024/03/06 01:59:13;;;;;;;56.45;26.05;;;;;;;;;;5114581;28;20023;-72
2024/03/06 02:01:40;;;;;;;59.40;25.20;;;;;;;;;;5114033;28;20038;-71
2024/03/06 02:04:09;;;;;;;67.15;26.30;;;;;;;;;;5113803;28;20031;-73
2024/03/06 02:06:35;;;;;;;56.22;25.65;;;;;;;;;;5095830;28;20383;-73
2024/03/06 02:09:03;;;;;;;57.75;24.98;;;;;;;;;;5096538;28;20100;-72
2024/03/06 02:11:29;;;;;;;55.80;25.40;;;;;;;;;;5114677;28;20023;-72
2024/03/06 02:13:55;;;;;;;57.85;25.80;;;;;;;;;;5094598;28;20027;-71
2024/03/06 02:16:20;;;;;;;62.40;27.52;;;;;;;;;;5113401;28;20024;-73
2024/03/06 02:18:59;;;;;;;62.22;25.88;;;;;;;;;;5094865;28;20046;-73
2024/03/06 02:21:25;;;;;;;53.10;24.30;;;;;;;;;;5094520;28;20023;-71
2024/03/06 02:23:51;;;;;;;56.83;25.23;;;;;;;;;;5095750;28;20023;-72
2024/03/06 02:26:21;;;;;;;55.78;26.33;;;;;;;;;;5094658;28;20089;-72
2024/03/06 02:28:49;;;;;;;58.33;25.93;;;;;;;;;;5111892;28;20035;-72
2024/03/06 02:31:16;;;;;;;56.70;25.67;;;;;;;;;;5113712;28;20478;-71
2024/03/06 02:33:44;;;;;;;57.20;26.50;;;;;;;;;;5095297;28;20024;-72
2024/03/06 02:36:11;;;;;;;50.43;24.80;;;;;;;;;;5095198;28;20194;-72
2024/03/06 02:38:36;;;;;;;56.73;24.60;;;;;;;;;;5095093;28;20038;-69
2024/03/06 02:41:02;;;;;;;58.30;25.30;;;;;;;;;;5094964;28;20110;-73
2024/03/06 02:43:28;;;;;;;55.90;25.00;;;;;;;;;;5095384;28;20418;-71
2024/03/06 02:45:53;;;;;;;55.50;25.60;;;;;;;;;;5114048;28;20031;-71
2024/03/06 02:48:19;;;;;;;56.00;25.93;;;;;;;;;;5113145;28;20034;-73
2024/03/06 02:50:45;;;;;;;54.13;25.92;;;;;;;;;;5112986;28;20023;-71
2024/03/06 02:53:10;;;;;;;73.23;26.30;;;;;;;;;;5113731;28;20027;-72
2024/03/06 02:55:36;;;;;;;50.13;23.33;;;;;;;;;;5113663;27;20034;-70
2024/03/06 02:58:04;;;;;;;56.87;25.63;;;;;;;;;;5134031;27;20062;-73
2024/03/06 03:00:31;;;;;;;56.78;25.58;;;;;;;;;;5118714;27;20083;-71
2024/03/06 03:02:57;;;;;;;50.93;24.70;;;;;;;;;;5139217;27;20045;-71
2024/03/06 03:05:23;;;;;;;52.17;24.77;;;;;;;;;;5117456;27;20084;-71
2024/03/06 03:07:49;;;;;;;52.50;23.38;;;;;;;;;;5113888;27;20501;-71
2024/03/06 03:10:15;;;;;;;49.00;23.53;;;;;;;;;;5097793;27;20109;-71
2024/03/06 03:12:41;;;;;;;49.83;23.23;;;;;;;;;;5114532;27;20043;-72
2024/03/06 03:15:09;;;;;;;49.10;23.60;;;;;;;;;;5115811;27;20069;-72
2024/03/06 03:17:35;;;;;;;55.30;22.85;;;;;;;;;;5115032;27;20386;-72
2024/03/06 03:20:09;;;;;;;51.28;23.95;;;;;;;;;;5114738;27;20057;-73
2024/03/06 03:22:36;;;;;;;59.33;24.03;;;;;;;;;;5100681;27;20039;-73
2024/03/06 03:25:01;;;;;;;48.95;21.75;;;;;;;;;;5132873;27;20071;-71
2024/03/06 03:27:27;;;;;;;54.83;23.00;;;;;;;;;;5132577;27;20386;-71
2024/03/06 03:29:53;;;;;;;51.43;24.57;;;;;;;;;;5132135;27;20102;-71
2024/03/06 03:32:19;;;;;;;57.60;27.67;;;;;;;;;;5132603;27;20027;-72
2024/03/06 03:34:45;;;;;;;56.80;24.92;;;;;;;;;;5132900;27;20019;-70
2024/03/06 03:37:13;;;;;;;55.85;24.98;;;;;;;;;;5132753;27;20023;-72
2024/03/06 03:39:38;;;;;;;58.72;25.80;;;;;;;;;;5132203;27;20038;-72
2024/03/06 03:42:04;;;;;;;56.58;23.70;;;;;;;;;;5128597;27;20035;-71
2024/03/06 03:44:30;;;;;;;56.40;25.23;;;;;;;;;;5112764;28;20036;-73
2024/03/06 03:46:55;;;;;;;56.15;25.05;;;;;;;;;;5094687;28;20118;-71
2024/03/06 03:49:21;;;;;;;54.80;24.58;;;;;;;;;;5113185;28;20031;-70
2024/03/06 03:51:47;;;;;;;55.95;25.88;;;;;;;;;;5113840;28;20422;-70
2024/03/06 03:54:12;;;;;;;52.92;24.50;;;;;;;;;;5122741;28;20319;-70
2024/03/06 03:56:38;;;;;;;51.95;25.30;;;;;;;;;;5135755;28;20110;-72
2024/03/06 03:59:03;;;;;;;57.88;28.15;;;;;;;;;;5137365;27;20172;-71
2024/03/06 04:01:29;;;;;;;49.30;23.63;;;;;;;;;;5122190;27;20399;-72
2024/03/06 04:03:55;;;;;;;62.95;27.17;;;;;;;;;;5140966;27;20382;-72
2024/03/06 04:06:20;;;;;;;59.55;26.65;;;;;;;;;;5140654;27;20492;-71
2024/03/06 04:08:46;;;;;;;60.25;26.35;;;;;;;;;;5140809;27;20052;-74
2024/03/06 04:11:11;;;;;;;60.15;26.05;;;;;;;;;;5122250;27;20031;-71
2024/03/06 04:13:38;;;;;;;59.63;24.90;;;;;;;;;;5139296;27;20046;-70
2024/03/06 04:16:04;;;;;;;51.30;24.95;;;;;;;;;;5122519;27;20144;-71
2024/03/06 04:18:34;;;;;;;56.47;25.63;;;;;;;;;;5121716;27;20035;-73
2024/03/06 04:21:06;;;;;;;57.27;24.47;;;;;;;;;;5139338;27;20466;-71
2024/03/06 04:23:32;;;;;;;60.70;25.92;;;;;;;;;;5138458;27;20035;-73
2024/03/06 04:25:58;;;;;;;56.63;26.33;;;;;;;;;;5137814;27;20031;-74
2024/03/06 04:28:24;;;;;;;62.20;25.75;;;;;;;;;;5119808;27;20062;-71
2024/03/06 04:30:50;;;;;;;61.17;24.50;;;;;;;;;;5138421;27;20026;-72
2024/03/06 04:33:15;;;;;;;53.33;25.47;;;;;;;;;;5138790;27;20051;-71
2024/03/06 04:35:41;;;;;;;57.03;25.27;;;;;;;;;;5135869;27;20084;-71
2024/03/06 04:38:07;;;;;;;56.15;25.50;;;;;;;;;;5136131;27;20645;-72
2024/03/06 04:40:34;;;;;;;57.65;26.08;;;;;;;;;;5136558;27;20027;-72
2024/03/06 04:43:03;;;;;;;55.60;26.40;;;;;;;;;;5123052;27;20043;-72
2024/03/06 04:45:29;;;;;;;60.27;27.60;;;;;;;;;;5097123;28;20038;-72
2024/03/06 04:47:55;;;;;;;56.07;25.57;;;;;;;;;;5099199;28;20028;-72
2024/03/06 04:50:21;;;;;;;55.23;25.93;;;;;;;;;;5098792;28;20056;-71
2024/03/06 04:52:46;;;;;;;56.25;26.52;;;;;;;;;;5117033;28;20030;-72
2024/03/06 04:55:12;;;;;;;60.67;25.80;;;;;;;;;;5098232;28;20131;-71
2024/03/06 04:57:40;;;;;;;64.40;27.17;;;;;;;;;;5097303;28;20098;-72
2024/03/06 05:00:06;;;;;;;58.03;26.45;;;;;;;;;;5097202;28;20489;-72
2024/03/06 05:02:34;;;;;;;63.07;25.57;;;;;;;;;;5117245;28;20024;-73
2024/03/06 05:05:03;;;;;;;58.20;26.13;;;;;;;;;;5117032;28;20111;-72
2024/03/06 05:07:30;;;;;;;61.80;26.37;;;;;;;;;;5098356;28;20055;-72
2024/03/06 05:09:57;;;;;;;53.23;25.07;;;;;;;;;;5098441;28;20093;-71
2024/03/06 05:12:23;;;;;;;62.53;28.87;;;;;;;;;;5115973;28;20102;-73
2024/03/06 05:14:49;;;;;;;60.72;27.15;;;;;;;;;;5098055;28;20023;-73
2024/03/06 05:17:14;;;;;;;64.03;28.37;;;;;;;;;;5117900;28;20043;-72
2024/03/06 05:19:40;;;;;;;59.47;26.00;;;;;;;;;;5117911;28;20028;-73
2024/03/06 05:22:06;;;;;;;54.92;26.95;;;;;;;;;;5099257;28;20405;-71
2024/03/06 05:24:31;;;;;;;59.08;27.33;;;;;;;;;;5098458;28;20537;-72
2024/03/06 05:26:57;;;;;;;65.95;27.05;;;;;;;;;;5115753;28;20494;-72
2024/03/06 05:29:22;;;;;;;63.15;27.45;;;;;;;;;;5116160;28;20023;-71
2024/03/06 05:31:48;;;;;;;64.53;26.00;;;;;;;;;;5097769;28;20031;-70
2024/03/06 05:34:13;;;;;;;58.92;26.05;;;;;;;;;;5097234;28;20515;-73
2024/03/06 05:36:39;;;;;;;62.03;27.85;;;;;;;;;;5116467;28;20030;-72
2024/03/06 05:39:12;;;;;;;63.20;28.63;;;;;;;;;;5097309;28;20502;-72
2024/03/06 05:41:39;;;;;;;64.07;27.90;;;;;;;;;;5117107;28;20523;-71
2024/03/06 05:44:05;;;;;;;60.97;27.55;;;;;;;;;;5098363;28;20346;-71
2024/03/06 05:46:30;;;;;;;60.80;27.58;;;;;;;;;;5098767;28;20497;-74
2024/03/06 05:49:01;;;;;;;56.00;26.97;;;;;;;;;;5116431;28;20034;-71
2024/03/06 05:51:27;;;;;;;58.00;27.55;;;;;;;;;;5098676;28;20379;-72
2024/03/06 05:53:53;;;;;;;56.60;26.95;;;;;;;;;;5120314;27;20362;-71
2024/03/06 05:56:19;;;;;;;64.82;27.33;;;;;;;;;;5136825;27;20055;-74
2024/03/06 05:58:46;;;;;;;63.72;27.95;;;;;;;;;;5120316;27;20019;-72
2024/03/06 06:01:15;;;;;;;63.88;28.52;;;;;;;;;;5141107;27;20019;-73
2024/03/06 06:03:41;;;;;;;63.67;27.52;;;;;;;;;;5138616;27;20429;-71
2024/03/06 06:06:08;;;;;;;62.03;28.05;;;;;;;;;;5115306;28;20077;-71
2024/03/06 06:08:34;;;;;;;64.78;26.52;;;;;;;;;;5114702;28;20050;-70
2024/03/06 06:11:02;;;;;;;67.85;26.88;;;;;;;;;;5115356;28;20027;-70
2024/03/06 06:13:28;;;;;;;54.45;24.95;;;;;;;;;;5111933;28;20030;-70
2024/03/06 06:15:54;;;;;;;63.38;26.80;;;;;;;;;;5112568;28;20031;-68
2024/03/06 06:18:19;;;;;;;62.92;27.23;;;;;;;;;;5111191;28;20043;-69
2024/03/06 06:20:45;;;;;;;60.05;26.65;;;;;;;;;;5111060;28;20036;-71
2024/03/06 06:23:11;;;;;;;59.42;27.38;;;;;;;;;;5109844;28;20114;-69
2024/03/06 06:25:36;;;;;;;56.72;27.27;;;;;;;;;;5111648;28;20143;-70
2024/03/06 06:28:02;;;;;;;64.18;26.33;;;;;;;;;;5111373;28;20298;-71
2024/03/06 06:30:27;;;;;;;60.47;26.52;;;;;;;;;;5110534;28;20023;-69
2024/03/06 06:32:53;;;;;;;62.45;27.02;;;;;;;;;;5109867;28;20031;-70
2024/03/06 06:35:19;;;;;;;55.37;25.73;;;;;;;;;;5089680;28;20035;-70
2024/03/06 06:37:44;;;;;;;60.38;25.58;;;;;;;;;;5091518;28;20035;-70
2024/03/06 06:40:12;;;;;;;60.50;28.05;;;;;;;;;;5090773;28;20035;-69
2024/03/06 06:42:44;;;;;;;55.50;27.48;;;;;;;;;;5089784;28;20127;-69
2024/03/06 06:45:10;;;;;;;59.60;26.73;;;;;;;;;;5090343;28;20384;-70
2024/03/06 06:47:36;;;;;;;57.95;26.58;;;;;;;;;;5089934;28;20027;-69
2024/03/06 06:50:05;;;;;;;50.85;25.45;;;;;;;;;;5105634;28;20379;-70
2024/03/06 06:52:33;;;;;;;60.72;29.17;;;;;;;;;;5100417;28;20032;-71
2024/03/06 06:54:59;;;;;;;59.92;26.42;;;;;;;;;;5085294;28;20055;-70
2024/03/06 06:57:25;;;;;;;62.45;27.15;;;;;;;;;;5089335;28;20126;-72
2024/03/06 06:59:50;;;;;;;54.83;26.63;;;;;;;;;;5088244;28;20166;-72
2024/03/06 07:02:17;;;;;;;58.00;27.83;;;;;;;;;;5091224;28;20028;-70
2024/03/06 07:04:43;;;;;;;69.88;29.05;;;;;;;;;;5097069;27;20046;-72
2024/03/06 07:07:09;;;;;;;58.97;27.10;;;;;;;;;;5094290;28;20023;-69
2024/03/06 07:09:34;;;;;;;68.23;28.03;;;;;;;;;;5115524;27;20567;-69
2024/03/06 07:12:02;;;;;;;73.53;31.60;;;;;;;;;;5102887;27;20055;-70
2024/03/06 07:14:28;;;;;;;56.90;27.00;;;;;;;;;;5096009;28;20558;-71
2024/03/06 07:16:54;;;;;;;61.95;31.10;;;;;;;;;;5108503;27;20042;-70
2024/03/06 07:19:20;;;;;;;56.05;29.00;;;;;;;;;;5107501;28;20092;-68
2024/03/06 07:21:46;;;;;;;64.18;28.05;;;;;;;;;;5112786;27;20035;-69
2024/03/06 07:24:11;;;;;;;58.75;26.05;;;;;;;;;;5110042;27;20073;-69
2024/03/06 07:26:37;;;;;;;55.30;27.33;;;;;;;;;;5095834;28;20540;-70
2024/03/06 07:29:02;;;;;;;58.08;27.08;;;;;;;;;;5096010;28;20063;-69
2024/03/06 07:31:30;;;;;;;54.53;24.98;;;;;;;;;;5107489;27;20130;-71
2024/03/06 07:33:56;;;;;;;59.85;25.85;;;;;;;;;;5110882;27;20027;-69
2024/03/06 07:36:21;;;;;;;57.22;24.80;;;;;;;;;;5103905;27;20039;-70
2024/03/06 07:38:48;;;;;;;64.50;27.70;;;;;;;;;;5098779;27;21013;-70
2024/03/06 07:41:14;;;;;;;59.85;25.83;;;;;;;;;;5074857;28;20726;-69
2024/03/06 07:43:39;;;;;;;52.83;25.95;;;;;;;;;;5093400;27;20042;-70
2024/03/06 07:46:10;;;;;;;61.70;28.80;;;;;;;;;;5088252;28;20038;-70
2024/03/06 07:48:37;;;;;;;50.80;26.40;;;;;;;;;;5111043;28;20027;-70
2024/03/06 07:51:04;;;;;;;57.33;26.25;;;;;;;;;;5091964;28;20028;-70
2024/03/06 07:53:31;;;;;;;63.10;28.30;;;;;;;;;;5084575;28;20031;-72
2024/03/06 07:55:58;;;;;;;54.10;26.83;;;;;;;;;;5112996;27;20066;-67
2024/03/06 07:58:24;;;;;;;60.22;25.52;;;;;;;;;;5100597;28;20111;-70
2024/03/06 08:00:55;;;;;;;63.67;27.35;;;;;;;;;;5088687;28;20037;-70
2024/03/06 08:03:22;;;;;;;57.83;25.73;;;;;;;;;;5091910;28;20467;-71
2024/03/06 08:05:54;;;;;;;59.83;26.98;;;;;;;;;;5110200;28;20071;-72
2024/03/06 08:08:20;;;;;;;;;;;;;;;;;;5087465;28;20059;-70
2024/03/06 08:10:46;;;;;;;57.15;25.50;;;;;;;;;;5111711;28;19915;-71
2024/03/06 08:13:21;;;;;;;54.90;25.65;;;;;;;;;;5087236;28;20049;-68
2024/03/06 08:15:47;;;;;;;52.53;24.80;;;;;;;;;;5103158;28;20024;-69
2024/03/06 08:18:14;;;;;;;56.13;25.65;;;;;;;;;;5104977;28;20026;-71
2024/03/06 08:20:44;;;;;;;54.15;26.25;;;;;;;;;;5090708;28;20035;-67
2024/03/06 08:23:10;;;;;;;57.65;26.70;;;;;;;;;;5099282;28;20024;-69
2024/03/06 08:25:36;;;;;;;54.40;25.50;;;;;;;;;;5106335;28;20059;-70
2024/03/06 08:28:03;;;;;;;55.95;25.88;;;;;;;;;;5085390;28;20078;-67
2024/03/06 08:30:30;;;;;;;62.50;30.15;;;;;;;;;;5101405;28;20023;-69
2024/03/06 08:32:57;;;;;;;66.15;27.33;;;;;;;;;;5098223;28;20126;-69
2024/03/06 08:35:23;;;;;;;68.88;28.17;;;;;;;;;;5101405;28;20097;-71
2024/03/06 08:37:52;;;;;;;59.17;28.40;;;;;;;;;;5105241;28;20034;-68
2024/03/06 08:40:18;;;;;;;60.60;28.15;;;;;;;;;;5102227;28;20042;-70
2024/03/06 08:42:44;;;;;;;62.83;27.48;;;;;;;;;;5082151;28;20023;-68
2024/03/06 08:45:10;;;;;;;59.63;28.20;;;;;;;;;;5113034;27;20107;-68
2024/03/06 08:47:36;;;;;;;60.33;28.25;;;;;;;;;;5109692;27;20106;-71
2024/03/06 08:50:03;;;;;;;59.45;26.00;;;;;;;;;;5094464;27;20325;-70
2024/03/06 08:52:32;;;;;;;65.00;28.45;;;;;;;;;;5087444;27;20043;-70
2024/03/06 08:54:58;;;;;;;59.33;25.85;;;;;;;;;;5113301;27;20067;-68
2024/03/06 08:57:26;;;;;;;56.70;26.23;;;;;;;;;;5105152;27;20085;-75
2024/03/06 08:59:52;;;;;;;55.28;26.50;;;;;;;;;;5088896;28;20062;-71
2024/03/06 09:02:19;;;;;;;67.15;27.17;;;;;;;;;;5086635;27;20059;-73
2024/03/06 09:04:47;;;;;;;58.67;26.38;;;;;;;;;;5105502;27;20048;-70
2024/03/06 09:07:14;;;;;;;54.30;25.15;;;;;;;;;;5084572;27;20123;-71
2024/03/06 09:09:41;;;;;;;56.42;27.15;;;;;;;;;;5076001;27;20035;-72
2024/03/06 09:12:12;;;;;;;56.58;26.02;;;;;;;;;;5095942;28;20126;-69
2024/03/06 09:14:38;;;;;;;55.15;26.13;;;;;;;;;;5078806;28;20176;-71
2024/03/06 09:17:05;;;;;;;55.63;27.00;;;;;;;;;;5118216;27;20051;-72
2024/03/06 09:19:32;;;;;;;61.72;27.10;;;;;;;;;;5094654;27;20072;-68
2024/03/06 09:22:00;;;;;;;65.13;27.73;;;;;;;;;;5091599;28;20050;-71
2024/03/06 09:24:25;;;;;;;55.95;26.17;;;;;;;;;;5093517;28;20046;-70
2024/03/06 09:26:52;;;;;;;62.00;25.92;;;;;;;;;;5114988;27;20035;-72
2024/03/06 09:29:20;;;;;;;54.15;27.25;;;;;;;;;;5075867;27;20654;-72
2024/03/06 09:31:47;;;;;;;50.70;25.30;;;;;;;;;;5111464;27;20023;-71
2024/03/06 09:34:14;;;;;;;54.22;26.33;;;;;;;;;;5085994;27;20034;-71
2024/03/06 09:36:44;;;;;;;53.75;26.55;;;;;;;;;;5109162;27;20080;-69
2024/03/06 09:39:12;;;;;;;53.53;26.70;;;;;;;;;;5107639;27;20096;-70
2024/03/06 09:41:41;;;;;;;56.30;26.33;;;;;;;;;;5113506;27;20435;-70
2024/03/06 09:44:07;;;;;;;61.28;28.00;;;;;;;;;;5077182;27;20027;-69
2024/03/06 09:46:34;;;;;;;53.10;25.65;;;;;;;;;;5095731;27;20031;-71
2024/03/06 09:49:01;;;;;;;63.00;27.13;;;;;;;;;;5111459;27;20058;-69
2024/03/06 09:51:27;;;;;;;53.20;26.45;;;;;;;;;;5080541;28;20490;-71
2024/03/06 09:53:54;;;;;;;56.10;26.45;;;;;;;;;;5089793;27;20126;-70
2024/03/06 09:56:20;;;;;;;56.17;26.52;;;;;;;;;;5079137;28;20436;-71
2024/03/06 09:58:46;;;;;;;55.58;25.73;;;;;;;;;;5092561;27;20130;-73
2024/03/06 10:01:15;;;;;;;49.38;26.23;;;;;;;;;;5104222;27;20376;-71
2024/03/06 10:03:41;;;;;;;52.45;24.85;;;;;;;;;;5107774;27;20084;-70
2024/03/06 10:06:07;;;;;;;61.97;25.73;;;;;;;;;;5091973;27;20046;-70
2024/03/06 10:08:33;;;;;;;59.55;28.13;;;;;;;;;;5087799;28;20111;-70
2024/03/06 10:11:00;;;;;;;55.10;26.77;;;;;;;;;;5103488;27;20027;-70
2024/03/06 10:13:25;;;;;;;51.75;25.63;;;;;;;;;;5091542;28;20112;-69
2024/03/06 10:16:14;;;;;;;56.05;26.23;;;;;;;;;;5099093;27;20043;-70
2024/03/06 10:18:39;;;;;;;53.63;26.83;;;;;;;;;;5079601;27;20027;-69
2024/03/06 10:21:08;;;;;;;55.22;27.15;;;;;;;;;;5104336;27;20050;-73
2024/03/06 10:23:34;;;;;;;53.13;25.38;;;;;;;;;;5090110;28;20031;-71
2024/03/06 10:26:00;;;;;;;51.00;24.58;;;;;;;;;;5111780;27;20091;-70
2024/03/06 10:28:27;;;;;;;55.05;26.85;;;;;;;;;;5104780;27;20019;-71
2024/03/06 10:31:08;;;;;;;54.08;26.75;;;;;;;;;;5106022;27;20039;-70
2024/03/06 10:33:34;;;;;;;46.58;23.95;;;;;;;;;;5088470;28;20046;-70
2024/03/06 10:36:01;;;;;;;52.03;26.63;;;;;;;;;;5108606;27;20028;-71
2024/03/06 10:38:32;;;;;;;57.03;24.67;;;;;;;;;;5091568;28;20019;-72
2024/03/06 10:40:59;;;;;;;48.47;23.73;;;;;;;;;;5097201;28;20028;-71
2024/03/06 10:43:27;;;;;;;48.10;24.33;;;;;;;;;;5089952;28;20451;-71
2024/03/06 10:46:04;;;;;;;53.05;24.35;;;;;;;;;;5101416;27;20349;-69
2024/03/06 10:48:30;;;;;;;49.15;24.73;;;;;;;;;;5106393;27;20036;-71
2024/03/06 10:50:57;;;;;;;53.67;25.23;;;;;;;;;;5093456;27;20436;-72
2024/03/06 10:53:26;;;;;;;48.78;25.13;;;;;;;;;;5087238;28;20135;-72
2024/03/06 10:55:53;;;;;;;45.88;23.73;;;;;;;;;;5097401;28;20448;-70
2024/03/06 10:58:21;;;;;;;52.83;24.45;;;;;;;;;;5096999;28;20027;-68
2024/03/06 11:00:49;;;;;;;50.92;24.00;;;;;;;;;;5115461;27;20019;-72
2024/03/06 11:03:16;;;;;;;47.97;25.38;;;;;;;;;;5096424;28;20051;-70
2024/03/06 11:05:46;;;;;;;44.95;24.10;;;;;;;;;;5092346;28;20167;-71
2024/03/06 11:08:13;;;;;;;52.08;25.38;;;;;;;;;;5106820;27;20020;-71
2024/03/06 11:10:42;;;;;;;52.50;24.90;;;;;;;;;;5077468;28;20042;-71
2024/03/06 11:13:28;;;;;;;49.35;24.88;;;;;;;;;;5091900;28;20505;-71
2024/03/06 11:15:58;;;;;;;53.08;29.33;;;;;;;;;;5111709;27;20019;-71
2024/03/06 11:18:33;;;;;;;51.30;24.23;;;;;;;;;;5096858;28;20028;-71
2024/03/06 11:21:06;;;;;;;45.88;23.90;;;;;;;;;;5100300;28;20023;-70
2024/03/06 11:23:32;;;;;;;44.15;22.45;;;;;;;;;;5116813;27;20379;-70
2024/03/06 11:26:03;;;;;;;47.65;23.50;;;;;;;;;;5116248;27;20097;-71
2024/03/06 11:28:33;;;;;;;49.25;25.20;;;;;;;;;;5114286;27;20023;-73
2024/03/06 11:31:11;;;;;;;50.28;24.90;;;;;;;;;;5095506;27;20035;-70
2024/03/06 11:33:40;;;;;;;45.25;23.85;;;;;;;;;;5110669;27;20030;-70
2024/03/06 11:36:31;;;;;;;48.42;23.90;;;;;;;;;;5101710;27;20145;-69
2024/03/06 11:39:00;;;;;;;44.13;22.52;;;;;;;;;;5105977;28;20054;-70
2024/03/06 11:41:29;;;;;;;44.58;23.08;;;;;;;;;;5092642;28;20039;-69
2024/03/06 11:43:59;;;;;;;44.08;22.08;;;;;;;;;;5107168;27;20417;-71
2024/03/06 11:46:53;;;;;;;34.33;17.95;;;;;;;;;;5107771;27;20039;-73
2024/03/06 11:49:28;;;;;;;36.10;18.33;;;;;;;;;;5104283;27;20024;-71
2024/03/06 11:51:59;;;;;;;37.40;18.52;;;;;;;;;;5088229;28;20038;-73
2024/03/06 11:54:26;;;;;;;42.95;21.73;;;;;;;;;;5096068;27;20031;-72
2024/03/06 11:56:54;;;;;;;39.92;21.33;;;;;;;;;;5088609;28;20496;-72
2024/03/06 11:59:24;;;;;;;41.95;20.58;;;;;;;;;;5107528;28;20035;-70
2024/03/06 12:01:52;;;;;;;45.85;21.50;;;;;;;;;;5103789;28;20032;-72
2024/03/06 12:04:20;;;;;;;39.30;19.25;;;;;;;;;;5089106;28;20035;-71
2024/03/06 12:06:47;;;;;;;42.15;19.67;;;;;;;;;;5108683;28;20028;-71
2024/03/06 12:09:13;;;;;;;39.75;19.35;;;;;;;;;;5071915;28;20063;-71
2024/03/06 12:11:38;;;;;;;42.00;21.60;;;;;;;;;;5090399;28;20128;-73
2024/03/06 12:14:05;;;;;;;46.17;21.17;;;;;;;;;;5105742;28;20475;-73
2024/03/06 12:16:30;;;;;;;41.40;20.60;;;;;;;;;;5113519;28;20087;-71
2024/03/06 12:18:58;;;;;;;45.20;21.02;;;;;;;;;;5088833;27;20026;-70
2024/03/06 12:21:34;;;;;;;46.70;21.42;;;;;;;;;;5095198;27;20039;-73
2024/03/06 12:24:09;;;;;;;43.92;20.77;;;;;;;;;;5092752;28;20032;-71
2024/03/06 12:26:38;;;;;;;45.67;22.48;;;;;;;;;;5092563;27;20559;-73
2024/03/06 12:29:05;;;;;;;42.25;21.15;;;;;;;;;;5109032;27;20027;-70
2024/03/06 12:31:31;;;;;;;42.63;23.20;;;;;;;;;;5095809;28;20550;-71
2024/03/06 12:34:02;;;;;;;45.20;22.08;;;;;;;;;;5111489;27;20075;-69
2024/03/06 12:36:30;;;;;;;46.38;23.17;;;;;;;;;;5110104;27;20031;-68
2024/03/06 12:38:59;;;;;;;44.05;22.63;;;;;;;;;;5112440;27;20020;-71
2024/03/06 12:41:26;;;;;;;42.38;21.55;;;;;;;;;;5106852;27;20100;-71
2024/03/06 12:43:52;;;;;;;44.78;19.85;;;;;;;;;;5092574;27;20066;-69
2024/03/06 12:46:23;;;;;;;42.95;20.63;;;;;;;;;;5092891;27;21465;-70
2024/03/06 12:48:50;;;;;;;39.28;17.67;;;;;;;;;;5099155;27;20042;-73
2024/03/06 12:51:16;;;;;;;38.45;19.20;;;;;;;;;;5111533;27;20031;-72
2024/03/06 12:53:42;;;;;;;34.45;17.33;;;;;;;;;;5091085;27;21319;-70
2024/03/06 12:56:08;;;;;;;33.13;17.10;;;;;;;;;;5090279;27;20034;-71
2024/03/06 12:58:36;;;;;;;30.77;14.60;;;;;;;;;;5109001;27;20024;-71
2024/03/06 13:01:02;;;;;;;33.90;16.40;;;;;;;;;;5095317;27;20027;-71
2024/03/06 13:03:28;;;;;;;31.95;16.38;;;;;;;;;;5114702;27;20080;-73
2024/03/06 13:05:55;;;;;;;33.17;16.27;;;;;;;;;;5113195;27;20129;-70
2024/03/06 13:08:21;;;;;;;33.13;16.42;;;;;;;;;;5097144;27;20023;-70
2024/03/06 13:10:47;;;;;;;33.42;17.77;;;;;;;;;;5110773;27;20745;-72
2024/03/06 13:13:12;;;;;;;30.40;15.90;;;;;;;;;;5099330;27;20038;-70
2024/03/06 13:15:38;;;;;;;31.83;15.40;;;;;;;;;;5116439;27;20079;-70
2024/03/06 13:18:04;;;;;;;35.80;16.75;;;;;;;;;;5094738;28;20544;-73
2024/03/06 13:20:35;;;;;;;38.03;16.13;;;;;;;;;;5114697;27;20057;-72
2024/03/06 13:23:01;;;;;;;32.50;15.57;;;;;;;;;;5114706;27;20023;-70
2024/03/06 13:25:35;;;;;;;34.58;15.88;;;;;;;;;;5108173;27;20035;-73
2024/03/06 13:28:01;;;;;;;31.02;15.57;;;;;;;;;;5119953;27;20024;-72
2024/03/06 13:30:29;;;;;;;31.95;15.05;;;;;;;;;;5078760;27;20421;-75
2024/03/06 13:32:56;;;;;;;33.30;16.02;;;;;;;;;;5094344;27;20067;-72
2024/03/06 13:35:23;;;;;;;37.65;16.45;;;;;;;;;;5114617;27;20026;-71
2024/03/06 13:37:53;;;;;;;36.63;15.63;;;;;;;;;;5097555;27;20137;-74
2024/03/06 13:40:19;;;;;;;30.77;16.08;;;;;;;;;;5081555;28;20562;-73
2024/03/06 13:42:46;;;;;;;43.38;16.77;;;;;;;;;;5093368;28;20027;-72
2024/03/06 13:45:14;;;;;;;38.50;15.50;;;;;;;;;;5121725;27;20035;-70
2024/03/06 13:47:43;;;;;;;40.50;17.00;;;;;;;;;;5117587;27;20059;-74
2024/03/06 13:50:13;;;;;;;46.85;18.63;;;;;;;;;;5095621;27;20035;-70
2024/03/06 13:52:40;;;;;;;41.05;19.98;;;;;;;;;;5090025;27;20030;-74
2024/03/06 13:55:07;;;;;;;53.00;21.65;;;;;;;;;;5096751;27;20051;-71
2024/03/06 13:57:36;;;;;;;47.03;21.23;;;;;;;;;;5114036;27;20029;-71
2024/03/06 14:00:12;;;;;;;54.58;23.40;;;;;;;;;;5092562;27;20478;-70
2024/03/06 14:02:40;;;;;;;48.72;23.67;;;;;;;;;;5114619;27;20019;-73
2024/03/06 14:05:06;;;;;;;45.17;21.38;;;;;;;;;;5089731;28;20062;-73
2024/03/06 14:07:34;;;;;;;48.28;24.58;;;;;;;;;;5079274;27;20024;-71
2024/03/06 14:09:59;;;;;;;53.40;23.80;;;;;;;;;;5108362;27;20105;-72
2024/03/06 14:12:25;;;;;;;58.17;24.73;;;;;;;;;;5083735;28;20028;-72
2024/03/06 14:14:50;;;;;;;50.53;24.52;;;;;;;;;;5112044;27;20450;-72
2024/03/06 14:17:16;;;;;;;50.03;24.20;;;;;;;;;;5111816;27;20480;-71
2024/03/06 14:19:42;;;;;;;47.40;22.98;;;;;;;;;;5095802;28;20745;-70